Santo Domingo, Dominican Republic
Current Conditions -  °F | °C
As of 5:00 PM on Tuesday 21 Oct 2014 (Local Time) from MDSD Reporting Station
Few Clouds Few Clouds  
Wind Chill: 30°   Ceiling: Unl
Heat Index: 34°   Visibility: 6mi
Dew Point: 23°   Wind: 7mph
Humidity: 66%   Direction: 170°S
Pressure: 29.85"   Gusts: NA
Location:  18.48°N, 69.91°W
Report Text: MDSD 212100Z 17006KT 9999 FEW020CB FEW022 30/23 Q1011 CB/NE/SE/NW
Loading
Personal Weather Stations






























Interactive Weather Map New forecast layout! Learn more

10-Day Weather Forecast

Advertisements
Track Severe Weather on mobile